createdAt,value
2019-02-25T00:01:30.819Z,0.24
2019-02-25T00:03:59.974Z,0.12
2019-02-25T00:06:29.079Z,0.21
2019-02-25T00:08:59.585Z,0.28
2019-02-25T00:11:28.812Z,0.35
2019-02-25T00:13:58.026Z,0.45
2019-02-25T00:16:27.047Z,0.54
2019-02-25T00:18:56.176Z,0.56
2019-02-25T00:21:25.298Z,0.50
2019-02-25T00:23:56.507Z,0.39
2019-02-25T00:26:25.743Z,0.36
2019-02-25T00:28:54.821Z,0.52
2019-02-25T00:31:23.978Z,0.58
2019-02-25T00:33:53.138Z,0.50
2019-02-25T00:36:22.284Z,0.38
2019-02-25T00:38:51.283Z,0.37
2019-02-25T00:41:20.466Z,0.35
2019-02-25T00:43:49.539Z,0.39
2019-02-25T00:46:18.666Z,0.35
2019-02-25T00:48:47.727Z,0.26
2019-02-25T00:51:16.851Z,0.22
2019-02-25T00:53:47.285Z,0.26
2019-02-25T00:56:16.381Z,0.23
2019-02-25T00:58:45.476Z,0.20
2019-02-25T01:01:15.857Z,0.18
2019-02-25T01:03:44.899Z,0.14
2019-02-25T01:06:14.060Z,0.05
2019-02-25T01:08:44.368Z,0.04
2019-02-25T01:11:13.449Z,0.07
2019-02-25T01:13:44.583Z,0.07
2019-02-25T01:16:13.771Z,-0.01
2019-02-25T01:18:42.933Z,-0.02
2019-02-25T01:21:12.016Z,-0.10
2019-02-25T01:23:45.268Z,-0.17
2019-02-25T01:26:14.366Z,-0.18
2019-02-25T01:28:43.469Z,-0.17
2019-02-25T01:31:12.582Z,-0.12
2019-02-25T01:33:41.729Z,-0.08
2019-02-25T01:36:14.460Z,-0.13
2019-02-25T01:38:47.190Z,0.01
2019-02-25T01:41:16.280Z,0.08
2019-02-25T01:43:45.352Z,-0.01
2019-02-25T01:46:14.437Z,-0.26
2019-02-25T01:48:43.503Z,-0.16
2019-02-25T01:51:12.637Z,-0.23
2019-02-25T01:53:44.868Z,-0.15
2019-02-25T01:56:14.047Z,-0.30
2019-02-25T01:58:43.582Z,-0.47
2019-02-25T02:01:14.679Z,-0.27
2019-02-25T02:03:47.624Z,-0.23
2019-02-25T02:06:16.731Z,-0.32
2019-02-25T02:08:45.817Z,-0.29
2019-02-25T02:11:14.875Z,-0.29
2019-02-25T02:13:44.420Z,-0.28
2019-02-25T02:16:13.493Z,-0.27
2019-02-25T02:18:42.556Z,-0.34
2019-02-25T02:21:11.823Z,-0.46
2019-02-25T02:23:41.996Z,-0.49
2019-02-25T02:26:11.100Z,-0.64
2019-02-25T02:28:40.323Z,-0.66
2019-02-25T02:31:11.388Z,-0.60
2019-02-25T02:33:40.573Z,-0.58
2019-02-25T02:36:11.751Z,-0.50
2019-02-25T02:38:48.890Z,-0.40
2019-02-25T02:41:18.032Z,-0.42
2019-02-25T02:43:47.155Z,-0.36
2019-02-25T02:46:26.649Z,-0.42
2019-02-25T02:48:59.783Z,-0.41
2019-02-25T02:51:28.847Z,-0.52
2019-02-25T02:53:57.977Z,-0.57
2019-02-25T02:56:27.048Z,-0.59
2019-02-25T02:58:56.205Z,-0.85
2019-02-25T03:01:25.261Z,-0.65
2019-02-25T03:03:54.350Z,-0.70
2019-02-25T03:06:23.680Z,-0.66
2019-02-25T03:08:52.781Z,-0.58
2019-02-25T03:11:21.850Z,-0.58
2019-02-25T03:13:51.003Z,-0.63
2019-02-25T03:16:20.057Z,-0.62
2019-02-25T03:18:49.145Z,-0.52
2019-02-25T03:21:18.262Z,-0.43
2019-02-25T03:23:47.433Z,-0.42
2019-02-25T03:26:16.558Z,-0.50
2019-02-25T03:28:45.657Z,-0.48
2019-02-25T03:31:14.722Z,-0.42
2019-02-25T03:33:45.309Z,-0.48
2019-02-25T03:36:14.395Z,-0.50
2019-02-25T03:38:45.839Z,-0.65
2019-02-25T03:41:14.912Z,-0.79
2019-02-25T03:43:48.683Z,-0.83
2019-02-25T03:46:23.857Z,-0.88
2019-02-25T03:48:52.976Z,-0.98
2019-02-25T03:51:24.305Z,-0.92
2019-02-25T03:53:54.506Z,-0.82
2019-02-25T03:56:23.647Z,-0.70
2019-02-25T03:58:53.014Z,-0.63
2019-02-25T04:01:24.225Z,-0.63
2019-02-25T04:03:53.292Z,-0.58
2019-02-25T04:06:22.413Z,-0.66
2019-02-25T04:08:51.499Z,-0.66
2019-02-25T04:11:21.732Z,-0.65
2019-02-25T04:13:51.465Z,-0.57
2019-02-25T04:16:20.590Z,-0.81
2019-02-25T04:18:49.652Z,-0.86
2019-02-25T04:21:18.721Z,-0.94
2019-02-25T04:23:47.855Z,-0.79
2019-02-25T04:26:16.972Z,-0.90
2019-02-25T04:28:47.575Z,-0.94
2019-02-25T04:31:16.661Z,-0.92
2019-02-25T04:33:45.769Z,-0.81
2019-02-25T04:36:14.964Z,-0.91
2019-02-25T04:38:44.066Z,-0.94
2019-02-25T04:41:15.735Z,-1.03
2019-02-25T04:43:44.953Z,-1.08
2019-02-25T04:46:14.135Z,-1.12
2019-02-25T04:48:43.222Z,-0.99
2019-02-25T04:51:12.413Z,-0.97
2019-02-25T04:53:45.329Z,-1.04
2019-02-25T04:56:14.459Z,-1.02
2019-02-25T04:58:43.709Z,-0.94
2019-02-25T05:01:12.831Z,-0.89
2019-02-25T05:03:41.992Z,-0.93
2019-02-25T05:06:11.059Z,-0.99
2019-02-25T05:08:40.145Z,-1.15
2019-02-25T05:11:09.280Z,-1.23
2019-02-25T05:13:38.350Z,-1.25
2019-02-25T05:16:07.497Z,-1.22
2019-02-25T05:18:36.553Z,-1.20
2019-02-25T05:21:05.568Z,-1.20
2019-02-25T05:23:37.794Z,-1.14
2019-02-25T05:26:06.885Z,-1.12
2019-02-25T05:28:35.958Z,-1.14
2019-02-25T05:31:05.049Z,-1.17
2019-02-25T05:33:34.136Z,-1.06
2019-02-25T05:36:03.271Z,-1.14
2019-02-25T05:38:33.589Z,-1.14
2019-02-25T05:41:04.244Z,-1.12
2019-02-25T05:43:33.410Z,-1.23
2019-02-25T05:46:02.470Z,-1.29
2019-02-25T05:48:31.622Z,-1.31
2019-02-25T05:51:00.804Z,-1.44
2019-02-25T05:53:30.760Z,-1.43
2019-02-25T05:56:03.820Z,-1.53
2019-02-25T05:58:32.928Z,-1.54
2019-02-25T06:01:02.074Z,-1.50
2019-02-25T06:03:33.548Z,-1.35
2019-02-25T06:06:02.636Z,-1.29
2019-02-25T06:08:37.353Z,-1.20
2019-02-25T06:11:06.524Z,-1.23
2019-02-25T06:13:37.829Z,-1.19
2019-02-25T06:16:06.896Z,-1.37
2019-02-25T06:18:36.011Z,-1.39
2019-02-25T06:21:05.046Z,-1.36
2019-02-25T06:23:37.949Z,-1.34
2019-02-25T06:26:07.078Z,-1.27
2019-02-25T06:28:37.304Z,-1.22
2019-02-25T06:31:06.368Z,-1.24
2019-02-25T06:33:38.375Z,-1.21
2019-02-25T06:36:07.413Z,-1.12
2019-02-25T06:38:38.963Z,-1.23
2019-02-25T06:41:08.041Z,-1.20
2019-02-25T06:43:37.174Z,-1.18
2019-02-25T06:46:06.240Z,-1.15
2019-02-25T06:48:36.773Z,-1.01
2019-02-25T06:51:05.850Z,-0.87
2019-02-25T06:53:36.871Z,-0.75
2019-02-25T06:56:08.100Z,-0.60
2019-02-25T06:58:38.598Z,-0.51
2019-02-25T07:01:07.774Z,-0.43
2019-02-25T07:03:36.909Z,-0.34
2019-02-25T07:06:27.700Z,-0.27
2019-02-25T07:12:12.230Z,-0.11
2019-02-25T07:14:50.427Z,0.02
2019-02-25T07:17:30.794Z,0.24
2019-02-25T07:20:21.388Z,0.38
2019-02-25T07:23:16.110Z,0.55
2019-02-25T07:26:07.226Z,0.72
2019-02-25T07:28:44.417Z,0.83
2019-02-25T07:31:32.455Z,0.86
2019-02-25T07:34:21.027Z,1.18
2019-02-25T07:37:07.588Z,1.45
2019-02-25T07:39:54.531Z,1.68
2019-02-25T07:42:35.568Z,1.87
2019-02-25T07:45:27.620Z,1.94
2019-02-25T07:48:02.512Z,2.14
2019-02-25T07:50:53.453Z,2.15
2019-02-25T07:53:50.832Z,2.52
2019-02-25T07:56:47.792Z,2.75
2019-02-25T07:59:40.393Z,3.55
2019-02-25T08:02:37.403Z,3.78
2019-02-25T08:05:28.900Z,3.81
2019-02-25T08:08:10.722Z,4.00
2019-02-25T08:11:09.641Z,4.39
2019-02-25T08:14:09.820Z,5.05
2019-02-25T08:17:00.872Z,7.21
2019-02-25T08:19:55.162Z,6.86
2019-02-25T08:22:42.337Z,6.94
2019-02-25T08:25:29.797Z,7.16
2019-02-25T08:28:13.968Z,7.26
2019-02-25T08:31:05.072Z,6.90
2019-02-25T08:33:52.369Z,7.70
2019-02-25T08:37:10.873Z,7.61
2019-02-25T08:39:51.907Z,7.06
2019-02-25T08:42:40.608Z,7.29
2019-02-25T08:45:24.664Z,4.20
2019-02-25T08:48:04.191Z,7.86
2019-02-25T08:50:33.294Z,8.10
2019-02-25T08:53:02.676Z,9.11
2019-02-25T08:55:31.822Z,9.45
2019-02-25T08:58:00.992Z,9.36
2019-02-25T09:00:30.597Z,9.17
2019-02-25T09:02:59.704Z,8.98
2019-02-25T09:05:28.827Z,9.76
2019-02-25T09:07:57.984Z,9.80
2019-02-25T09:10:27.104Z,9.93
2019-02-25T09:12:56.314Z,10.45
2019-02-25T09:15:28.225Z,9.39
2019-02-25T09:17:55.809Z,10.04
2019-02-25T09:20:25.261Z,10.06
2019-02-25T09:22:54.459Z,10.09
2019-02-25T09:25:24.007Z,11.11
2019-02-25T09:27:53.159Z,10.91
2019-02-25T09:30:22.429Z,10.31
2019-02-25T09:32:51.593Z,11.02
2019-02-25T09:35:23.989Z,11.42
2019-02-25T09:37:53.101Z,11.75
2019-02-25T09:40:22.315Z,11.83
2019-02-25T09:42:51.559Z,12.05
2019-02-25T09:45:20.752Z,11.95
2019-02-25T09:47:49.870Z,12.11
2019-02-25T09:50:19.034Z,12.46
2019-02-25T09:52:49.828Z,12.97
2019-02-25T09:55:18.912Z,13.29
2019-02-25T09:57:48.083Z,13.69
2019-02-25T10:00:17.714Z,13.25
2019-02-25T10:02:46.839Z,13.50
2019-02-25T10:05:17.082Z,13.68
2019-02-25T10:07:46.256Z,14.58
2019-02-25T10:10:15.371Z,14.12
2019-02-25T10:12:44.475Z,14.74
2019-02-25T10:15:14.531Z,14.72
2019-02-25T10:17:45.302Z,14.70
2019-02-25T10:20:14.545Z,14.90
2019-02-25T10:22:43.714Z,14.92
2019-02-25T10:25:14.464Z,15.10
2019-02-25T10:27:44.872Z,14.75
2019-02-25T10:30:14.038Z,15.33
2019-02-25T10:32:43.273Z,14.89
2019-02-25T10:35:12.843Z,15.19
2019-02-25T10:37:43.749Z,15.39
2019-02-25T10:40:15.231Z,15.39
2019-02-25T10:42:44.287Z,15.65
2019-02-25T10:45:15.425Z,15.83
2019-02-25T10:47:46.796Z,15.28
2019-02-25T10:50:16.407Z,15.31
2019-02-25T10:52:49.508Z,15.73
2019-02-25T10:55:26.084Z,16.11
2019-02-25T10:57:59.822Z,15.91
2019-02-25T11:00:30.205Z,16.07
2019-02-25T11:02:59.490Z,15.40
2019-02-25T11:05:30.649Z,15.76
2019-02-25T11:08:03.275Z,15.71
2019-02-25T11:10:36.359Z,15.25
2019-02-25T11:13:05.874Z,15.94
2019-02-25T11:15:37.483Z,15.75
2019-02-25T11:18:08.598Z,15.96
2019-02-25T11:20:37.932Z,16.33
2019-02-25T11:23:07.033Z,15.68
2019-02-25T11:25:36.135Z,15.71
2019-02-25T11:28:09.303Z,16.08
2019-02-25T11:30:38.120Z,16.47
2019-02-25T11:33:07.165Z,16.03
2019-02-25T11:35:37.063Z,16.77
2019-02-25T11:38:07.086Z,16.22
2019-02-25T11:40:38.296Z,16.50
2019-02-25T11:43:08.412Z,16.54
2019-02-25T11:45:37.849Z,16.93
2019-02-25T11:48:06.908Z,16.26
2019-02-25T11:50:36.024Z,15.27
2019-02-25T11:53:06.220Z,16.07
2019-02-25T11:55:35.389Z,16.49
2019-02-25T11:58:05.973Z,16.74
2019-02-25T12:00:35.035Z,16.05
2019-02-25T12:03:04.159Z,16.51
2019-02-25T12:05:33.285Z,16.56
2019-02-25T12:08:03.311Z,16.18
2019-02-25T12:10:32.396Z,16.76
2019-02-25T12:13:01.424Z,15.91
2019-02-25T12:15:30.518Z,15.66
2019-02-25T12:17:59.538Z,16.23
2019-02-25T12:20:28.635Z,16.27
2019-02-25T12:22:57.662Z,15.70
2019-02-25T12:25:27.238Z,16.06
2019-02-25T12:27:57.510Z,16.64
2019-02-25T12:30:26.652Z,16.58
2019-02-25T12:32:55.690Z,17.07
2019-02-25T12:35:24.799Z,16.11
2019-02-25T12:37:53.859Z,16.29
2019-02-25T12:40:23.138Z,16.33
2019-02-25T12:42:52.290Z,16.81
2019-02-25T12:45:21.361Z,17.24
2019-02-25T12:47:50.576Z,17.10
2019-02-25T12:50:19.833Z,16.96
2019-02-25T12:52:48.890Z,17.11
2019-02-25T12:55:20.886Z,17.27
2019-02-25T12:57:50.369Z,16.33
2019-02-25T13:00:20.166Z,16.83
2019-02-25T13:02:49.280Z,17.14
2019-02-25T13:05:19.057Z,17.62
2019-02-25T13:07:48.427Z,17.11
2019-02-25T13:10:17.562Z,17.43
2019-02-25T13:12:46.660Z,17.21
2019-02-25T13:15:15.797Z,17.45
2019-02-25T13:17:44.894Z,16.92
2019-02-25T13:20:14.011Z,16.72
2019-02-25T13:22:43.905Z,17.27
2019-02-25T13:25:13.723Z,17.06
2019-02-25T13:27:42.863Z,16.86
2019-02-25T13:30:14.212Z,16.71
2019-02-25T13:32:43.306Z,16.74
2019-02-25T13:35:13.011Z,16.04
2019-02-25T13:37:44.831Z,16.06
2019-02-25T13:40:13.959Z,16.15
2019-02-25T13:42:45.881Z,16.28
2019-02-25T13:45:15.223Z,16.55
2019-02-25T13:47:44.308Z,16.22
2019-02-25T13:50:13.360Z,16.29
2019-02-25T13:52:48.223Z,16.38
2019-02-25T13:55:13.648Z,16.17
2019-02-25T13:57:43.293Z,16.41
2019-02-25T14:00:18.808Z,16.48
2019-02-25T14:02:48.750Z,16.45
2019-02-25T14:05:18.001Z,16.33
2019-02-25T14:07:47.140Z,16.49
2019-02-25T14:10:16.723Z,16.56
2019-02-25T14:12:50.891Z,16.52
2019-02-25T14:15:20.779Z,16.53
2019-02-25T14:17:51.891Z,16.55
2019-02-25T14:20:22.452Z,16.34
2019-02-25T14:22:53.503Z,16.43
2019-02-25T14:25:24.453Z,16.46
2019-02-25T14:27:53.591Z,16.43
2019-02-25T14:30:23.576Z,16.50
2019-02-25T14:32:53.437Z,16.45
2019-02-25T14:35:28.165Z,16.45
2019-02-25T14:37:57.643Z,16.53
2019-02-25T14:40:29.012Z,16.45
2019-02-25T14:42:59.542Z,16.47
2019-02-25T14:45:28.870Z,15.72
2019-02-25T14:48:00.004Z,16.49
2019-02-25T14:50:29.651Z,16.48
2019-02-25T14:53:00.189Z,16.25
2019-02-25T14:55:29.447Z,16.28
2019-02-25T14:58:04.197Z,16.39
2019-02-25T15:00:32.801Z,16.36
2019-02-25T15:03:01.630Z,16.31
2019-02-25T15:05:33.024Z,16.22
2019-02-25T15:10:41.219Z,16.08
2019-02-25T15:13:11.134Z,16.23
2019-02-25T15:15:43.582Z,16.18
2019-02-25T15:18:12.588Z,16.12
2019-02-25T15:20:45.836Z,16.01
2019-02-25T15:23:18.815Z,16.09
2019-02-25T15:25:49.021Z,15.93
2019-02-25T15:28:18.714Z,15.96
2019-02-25T15:30:49.969Z,15.88
2019-02-25T15:33:19.061Z,15.84
2019-02-25T15:35:49.166Z,15.91
2019-02-25T15:38:18.495Z,15.97
2019-02-25T15:40:47.570Z,15.87
2019-02-25T15:43:20.334Z,15.85
2019-02-25T15:45:47.417Z,15.66
2019-02-25T15:48:18.514Z,15.76
2019-02-25T15:50:48.499Z,15.80
2019-02-25T15:53:21.120Z,15.75
2019-02-25T15:55:51.987Z,15.78
2019-02-25T15:58:21.383Z,15.68
2019-02-25T16:00:51.884Z,15.45
2019-02-25T16:03:21.177Z,15.36
2019-02-25T16:05:57.165Z,15.50
2019-02-25T16:08:25.934Z,15.54
2019-02-25T16:13:48.007Z,15.36
2019-02-25T16:16:17.064Z,15.29
2019-02-25T16:18:47.899Z,15.41
2019-02-25T16:21:18.528Z,15.26
2019-02-25T16:23:48.727Z,15.16
2019-02-25T16:26:19.612Z,15.12
2019-02-25T16:28:53.181Z,15.04
2019-02-25T16:31:37.646Z,14.98
2019-02-25T16:34:14.194Z,15.06
2019-02-25T16:36:45.190Z,15.06
2019-02-25T16:39:14.079Z,14.97
2019-02-25T16:41:43.878Z,14.85
2019-02-25T16:44:14.652Z,14.74
2019-02-25T16:46:46.743Z,14.46
2019-02-25T16:49:18.256Z,14.45
2019-02-25T16:51:47.427Z,14.33
2019-02-25T16:54:18.862Z,14.10
2019-02-25T16:56:48.625Z,14.09
2019-02-25T16:59:18.574Z,13.93
2019-02-25T17:01:50.871Z,14.00
2019-02-25T17:04:22.731Z,13.68
2019-02-25T17:06:51.769Z,13.43
2019-02-25T17:09:25.280Z,13.10
2019-02-25T17:11:55.569Z,12.79
2019-02-25T17:14:26.748Z,12.64
2019-02-25T17:16:57.014Z,12.36
2019-02-25T17:19:26.590Z,12.08
2019-02-25T17:21:55.842Z,11.80
2019-02-25T17:24:27.908Z,11.68
2019-02-25T17:26:56.415Z,11.68
2019-02-25T17:29:26.569Z,11.25
2019-02-25T17:31:57.519Z,10.99
2019-02-25T17:34:27.835Z,10.93
2019-02-25T17:36:58.397Z,10.83
2019-02-25T17:39:29.493Z,10.70
2019-02-25T17:42:01.460Z,10.28
2019-02-25T17:44:32.128Z,10.05
2019-02-25T17:47:04.443Z,9.85
2019-02-25T17:49:33.725Z,9.58
2019-02-25T17:52:03.764Z,9.45
2019-02-25T17:54:33.491Z,9.33
2019-02-25T17:57:05.239Z,9.35
2019-02-25T17:59:39.203Z,9.34
2019-02-25T18:02:12.600Z,9.14
2019-02-25T18:04:41.599Z,9.23
2019-02-25T18:07:10.703Z,9.07
2019-02-25T18:09:42.697Z,8.80
2019-02-25T18:12:11.885Z,8.73
2019-02-25T18:14:43.090Z,8.59
2019-02-25T18:17:14.812Z,8.51
2019-02-25T18:19:45.438Z,8.37
2019-02-25T18:22:16.089Z,8.32
2019-02-25T18:24:46.313Z,8.30
2019-02-25T18:27:16.160Z,8.34
2019-02-25T18:29:46.296Z,8.10
2019-02-25T18:32:16.673Z,7.78
2019-02-25T18:34:47.467Z,7.63
2019-02-25T18:37:17.706Z,7.52
2019-02-25T18:39:50.049Z,7.40
2019-02-25T18:42:20.337Z,7.29
2019-02-25T18:44:51.856Z,7.11
2019-02-25T18:47:23.460Z,6.25
2019-02-25T18:49:53.941Z,7.09
2019-02-25T18:52:23.653Z,7.09
2019-02-25T18:54:52.823Z,6.92
2019-02-25T18:57:23.167Z,6.78
2019-02-25T18:59:56.899Z,6.68
2019-02-25T19:02:31.273Z,6.49
2019-02-25T19:05:02.200Z,6.49
2019-02-25T19:07:33.680Z,6.49
2019-02-25T19:10:05.917Z,6.36
2019-02-25T19:12:35.322Z,6.29
2019-02-25T19:15:06.711Z,6.10
2019-02-25T19:17:36.032Z,5.96
2019-02-25T19:20:07.082Z,5.99
2019-02-25T19:22:37.741Z,5.84
2019-02-25T19:25:14.923Z,5.77
2019-02-25T19:27:40.679Z,5.79
2019-02-25T19:30:10.417Z,5.68
2019-02-25T19:32:40.442Z,5.62
2019-02-25T19:35:12.113Z,5.52
2019-02-25T19:37:44.320Z,5.48
2019-02-25T19:40:16.893Z,5.41
2019-02-25T19:42:49.247Z,5.35
2019-02-25T19:45:18.069Z,5.18
2019-02-25T19:47:48.695Z,5.14
2019-02-25T19:50:17.810Z,5.08
2019-02-25T19:52:47.912Z,5.09
2019-02-25T19:55:18.398Z,5.07
2019-02-25T19:57:48.083Z,5.00
2019-02-25T20:00:22.301Z,4.94
2019-02-25T20:02:52.003Z,4.88
2019-02-25T20:05:22.319Z,4.89
2019-02-25T20:07:52.087Z,4.86
2019-02-25T20:10:21.238Z,4.87
2019-02-25T20:12:53.301Z,4.79
2019-02-25T20:15:25.081Z,4.70
2019-02-25T20:17:55.241Z,4.69
2019-02-25T20:20:31.915Z,4.65
2019-02-25T20:23:04.429Z,4.65
2019-02-25T20:25:36.962Z,4.59
2019-02-25T20:28:06.204Z,4.46
2019-02-25T20:30:35.414Z,4.35
2019-02-25T20:33:11.051Z,4.16
2019-02-25T20:35:40.226Z,4.04
2019-02-25T20:38:15.686Z,3.96
2019-02-25T20:40:47.068Z,3.98
2019-02-25T20:43:19.351Z,4.05
2019-02-25T20:45:52.141Z,3.11
2019-02-25T20:48:21.148Z,3.98
2019-02-25T20:50:50.344Z,3.90
2019-02-25T20:53:25.105Z,3.77
2019-02-25T20:55:56.708Z,3.75
2019-02-25T20:58:27.433Z,3.70
2019-02-25T21:01:01.005Z,3.57
2019-02-25T21:03:30.558Z,3.56
2019-02-25T21:06:02.550Z,3.48
2019-02-25T21:08:31.772Z,3.36
2019-02-25T21:11:02.458Z,3.39
2019-02-25T21:13:35.952Z,3.35
2019-02-25T21:16:08.168Z,3.47
2019-02-25T21:18:38.685Z,3.49
2019-02-25T21:21:11.271Z,3.47
2019-02-25T21:23:39.398Z,3.36
2019-02-25T21:26:09.312Z,3.35
2019-02-25T21:28:42.900Z,3.32
2019-02-25T21:31:16.147Z,3.06
2019-02-25T21:33:47.314Z,2.90
2019-02-25T21:36:18.442Z,3.13
2019-02-25T21:38:51.526Z,3.23
2019-02-25T21:41:21.795Z,3.12
2019-02-25T21:43:51.781Z,3.11
2019-02-25T21:46:24.621Z,3.14
2019-02-25T21:48:54.977Z,3.06
2019-02-25T21:51:25.347Z,3.08
2019-02-25T21:53:55.962Z,3.03
2019-02-25T21:56:30.489Z,2.96
2019-02-25T21:59:00.006Z,2.89
2019-02-25T22:01:29.966Z,2.82
2019-02-25T22:04:03.211Z,2.71
2019-02-25T22:06:33.939Z,2.70
2019-02-25T22:09:05.016Z,2.62
2019-02-25T22:11:34.653Z,2.57
2019-02-25T22:14:03.803Z,2.58
2019-02-25T22:16:33.161Z,2.60
2019-02-25T22:19:02.385Z,2.62
2019-02-25T22:21:31.680Z,2.63
2019-02-25T22:24:03.252Z,2.55
2019-02-25T22:26:33.420Z,2.47
2019-02-25T22:29:04.952Z,2.45
2019-02-25T22:31:40.066Z,2.47
2019-02-25T22:34:11.049Z,2.41
2019-02-25T22:36:43.752Z,2.20
2019-02-25T22:39:12.325Z,2.16
2019-02-25T22:41:42.339Z,2.42
2019-02-25T22:44:15.313Z,2.41
2019-02-25T22:46:44.948Z,2.33
2019-02-25T22:49:16.932Z,2.40
2019-02-25T22:51:46.259Z,2.33
2019-02-25T22:54:17.028Z,2.21
2019-02-25T22:56:48.118Z,2.00
2019-02-25T22:59:20.683Z,1.97
2019-02-25T23:01:52.032Z,2.04
2019-02-25T23:04:22.500Z,2.06
2019-02-25T23:06:53.459Z,2.05
2019-02-25T23:09:25.671Z,2.05
2019-02-25T23:11:55.523Z,1.95
2019-02-25T23:14:28.104Z,1.86
2019-02-25T23:16:59.835Z,1.87
2019-02-25T23:19:30.993Z,1.80
2019-02-25T23:22:00.205Z,1.91
2019-02-25T23:24:30.467Z,1.05
2019-02-25T23:27:00.292Z,2.00
2019-02-25T23:29:29.430Z,2.03
2019-02-25T23:32:01.814Z,1.85
2019-02-25T23:34:29.539Z,1.73
2019-02-25T23:36:58.689Z,1.57
2019-02-25T23:39:32.387Z,1.68
2019-02-25T23:42:06.645Z,1.58
2019-02-25T23:44:33.801Z,1.62
2019-02-25T23:47:04.419Z,1.55
2019-02-25T23:49:36.292Z,1.64
2019-02-25T23:52:04.662Z,1.63
2019-02-25T23:54:33.803Z,1.63
2019-02-25T23:57:02.862Z,1.57
2019-02-25T23:59:31.998Z,1.52
